sensor_id;sensor_type;location;lat;lon;timestamp;P1;durP1;ratioP1;P2;durP2;ratioP2
40254;SDS011;25973;52.368;4.940;2022-08-01T00:02:09;5.75;;;2.85;;
40254;SDS011;25973;52.368;4.940;2022-08-01T00:04:35;4.55;;;2.13;;
40254;SDS011;25973;52.368;4.940;2022-08-01T00:07:00;5.07;;;2.70;;
40254;SDS011;25973;52.368;4.940;2022-08-01T00:09:26;6.25;;;2.88;;
40254;SDS011;25973;52.368;4.940;2022-08-01T00:11:52;5.60;;;2.45;;
40254;SDS011;25973;52.368;4.940;2022-08-01T00:14:17;5.00;;;2.28;;
40254;SDS011;25973;52.368;4.940;2022-08-01T00:16:43;5.25;;;2.17;;
40254;SDS011;25973;52.368;4.940;2022-08-01T00:19:08;4.45;;;2.33;;
40254;SDS011;25973;52.368;4.940;2022-08-01T00:21:34;4.13;;;2.15;;
40254;SDS011;25973;52.368;4.940;2022-08-01T00:23:59;6.93;;;2.35;;
40254;SDS011;25973;52.368;4.940;2022-08-01T00:26:25;7.22;;;2.72;;
40254;SDS011;25973;52.368;4.940;2022-08-01T00:28:51;7.63;;;2.83;;
40254;SDS011;25973;52.368;4.940;2022-08-01T00:31:16;4.68;;;2.80;;
40254;SDS011;25973;52.368;4.940;2022-08-01T00:33:42;6.50;;;2.75;;
40254;SDS011;25973;52.368;4.940;2022-08-01T00:36:07;4.47;;;2.47;;
40254;SDS011;25973;52.368;4.940;2022-08-01T00:38:33;4.97;;;2.60;;
40254;SDS011;25973;52.368;4.940;2022-08-01T00:40:58;5.30;;;2.33;;
40254;SDS011;25973;52.368;4.940;2022-08-01T00:43:24;5.68;;;2.22;;
40254;SDS011;25973;52.368;4.940;2022-08-01T00:45:49;5.85;;;2.80;;
40254;SDS011;25973;52.368;4.940;2022-08-01T00:48:15;7.25;;;3.13;;
40254;SDS011;25973;52.368;4.940;2022-08-01T00:50:41;5.55;;;2.92;;
40254;SDS011;25973;52.368;4.940;2022-08-01T00:53:06;7.45;;;3.15;;
40254;SDS011;25973;52.368;4.940;2022-08-01T00:55:32;8.10;;;2.92;;
40254;SDS011;25973;52.368;4.940;2022-08-01T00:57:58;4.28;;;2.50;;
40254;SDS011;25973;52.368;4.940;2022-08-01T01:00:24;4.35;;;2.65;;
40254;SDS011;25973;52.368;4.940;2022-08-01T01:02:51;3.13;;;2.05;;
40254;SDS011;25973;52.368;4.940;2022-08-01T01:05:16;5.65;;;2.80;;
40254;SDS011;25973;52.368;4.940;2022-08-01T01:10:37;4.38;;;2.10;;
40254;SDS011;25973;52.368;4.940;2022-08-01T01:13:13;4.32;;;2.17;;
40254;SDS011;25973;52.368;4.940;2022-08-01T01:15:55;6.55;;;2.30;;
40254;SDS011;25973;52.368;4.940;2022-08-01T01:18:24;5.55;;;2.40;;
40254;SDS011;25973;52.368;4.940;2022-08-01T01:26:50;3.92;;;2.60;;
40254;SDS011;25973;52.368;4.940;2022-08-01T01:29:30;6.18;;;2.58;;
40254;SDS011;25973;52.368;4.940;2022-08-01T01:32:22;5.95;;;2.25;;
40254;SDS011;25973;52.368;4.940;2022-08-01T01:34:59;5.15;;;2.83;;
40254;SDS011;25973;52.368;4.940;2022-08-01T01:37:34;6.00;;;2.80;;
40254;SDS011;25973;52.368;4.940;2022-08-01T01:40:02;5.38;;;2.97;;
40254;SDS011;25973;52.368;4.940;2022-08-01T01:42:30;4.70;;;2.75;;
40254;SDS011;25973;52.368;4.940;2022-08-01T01:44:56;6.30;;;3.08;;
40254;SDS011;25973;52.368;4.940;2022-08-01T01:47:23;6.65;;;2.95;;
40254;SDS011;25973;52.368;4.940;2022-08-01T01:49:50;6.03;;;2.78;;
40254;SDS011;25973;52.368;4.940;2022-08-01T01:52:18;6.38;;;2.30;;
40254;SDS011;25973;52.368;4.940;2022-08-01T01:54:46;6.95;;;2.53;;
40254;SDS011;25973;52.368;4.940;2022-08-01T01:57:14;4.85;;;2.47;;
40254;SDS011;25973;52.368;4.940;2022-08-01T01:59:41;6.55;;;2.88;;
40254;SDS011;25973;52.368;4.940;2022-08-01T02:02:09;4.20;;;2.80;;
40254;SDS011;25973;52.368;4.940;2022-08-01T02:04:36;6.40;;;2.90;;
40254;SDS011;25973;52.368;4.940;2022-08-01T02:07:05;8.32;;;2.80;;
40254;SDS011;25973;52.368;4.940;2022-08-01T02:09:33;8.60;;;2.75;;
40254;SDS011;25973;52.368;4.940;2022-08-01T02:12:00;6.38;;;3.10;;
40254;SDS011;25973;52.368;4.940;2022-08-01T02:14:28;7.63;;;3.55;;
40254;SDS011;25973;52.368;4.940;2022-08-01T02:16:55;10.35;;;4.22;;
40254;SDS011;25973;52.368;4.940;2022-08-01T02:19:23;9.02;;;3.25;;
40254;SDS011;25973;52.368;4.940;2022-08-01T02:21:55;6.15;;;3.42;;
40254;SDS011;25973;52.368;4.940;2022-08-01T02:24:29;10.93;;;4.60;;
40254;SDS011;25973;52.368;4.940;2022-08-01T02:27:07;7.97;;;3.67;;
40254;SDS011;25973;52.368;4.940;2022-08-01T02:29:44;8.88;;;3.80;;
40254;SDS011;25973;52.368;4.940;2022-08-01T02:32:17;8.07;;;4.03;;
40254;SDS011;25973;52.368;4.940;2022-08-01T02:34:48;6.32;;;3.25;;
40254;SDS011;25973;52.368;4.940;2022-08-01T02:37:15;6.88;;;2.78;;
40254;SDS011;25973;52.368;4.940;2022-08-01T02:39:43;3.45;;;2.10;;
40254;SDS011;25973;52.368;4.940;2022-08-01T02:42:15;4.90;;;1.90;;
40254;SDS011;25973;52.368;4.940;2022-08-01T02:44:43;3.38;;;1.40;;
40254;SDS011;25973;52.368;4.940;2022-08-01T02:47:11;1.50;;;1.10;;
40254;SDS011;25973;52.368;4.940;2022-08-01T02:49:42;2.40;;;0.90;;
40254;SDS011;25973;52.368;4.940;2022-08-01T02:52:10;1.05;;;0.70;;
40254;SDS011;25973;52.368;4.940;2022-08-01T02:54:38;2.10;;;1.00;;
40254;SDS011;25973;52.368;4.940;2022-08-01T02:57:05;1.70;;;0.90;;
40254;SDS011;25973;52.368;4.940;2022-08-01T02:59:33;1.63;;;0.70;;
40254;SDS011;25973;52.368;4.940;2022-08-01T03:02:02;3.20;;;1.20;;
40254;SDS011;25973;52.368;4.940;2022-08-01T03:04:29;2.17;;;0.88;;
40254;SDS011;25973;52.368;4.940;2022-08-01T03:06:57;1.27;;;0.93;;
40254;SDS011;25973;52.368;4.940;2022-08-01T03:09:25;1.85;;;1.10;;
40254;SDS011;25973;52.368;4.940;2022-08-01T03:11:54;2.03;;;1.15;;
40254;SDS011;25973;52.368;4.940;2022-08-01T03:14:23;3.60;;;1.25;;
40254;SDS011;25973;52.368;4.940;2022-08-01T03:16:50;3.85;;;1.42;;
40254;SDS011;25973;52.368;4.940;2022-08-01T03:19:17;2.45;;;1.75;;
40254;SDS011;25973;52.368;4.940;2022-08-01T03:21:45;2.85;;;1.05;;
40254;SDS011;25973;52.368;4.940;2022-08-01T03:24:13;1.75;;;1.27;;
40254;SDS011;25973;52.368;4.940;2022-08-01T03:26:41;1.35;;;0.98;;
40254;SDS011;25973;52.368;4.940;2022-08-01T03:29:10;3.60;;;1.35;;
40254;SDS011;25973;52.368;4.940;2022-08-01T03:31:40;1.77;;;1.17;;
40254;SDS011;25973;52.368;4.940;2022-08-01T03:34:09;7.10;;;1.85;;
40254;SDS011;25973;52.368;4.940;2022-08-01T03:36:42;2.13;;;1.20;;
40254;SDS011;25973;52.368;4.940;2022-08-01T03:39:30;3.65;;;1.10;;
40254;SDS011;25973;52.368;4.940;2022-08-01T03:42:04;2.83;;;1.10;;
40254;SDS011;25973;52.368;4.940;2022-08-01T03:44:34;3.42;;;1.20;;
40254;SDS011;25973;52.368;4.940;2022-08-01T03:47:04;1.63;;;0.93;;
40254;SDS011;25973;52.368;4.940;2022-08-01T03:49:32;3.42;;;0.95;;
40254;SDS011;25973;52.368;4.940;2022-08-01T03:52:01;5.05;;;1.27;;
40254;SDS011;25973;52.368;4.940;2022-08-01T03:54:30;2.78;;;1.38;;
40254;SDS011;25973;52.368;4.940;2022-08-01T03:56:58;4.55;;;1.38;;
40254;SDS011;25973;52.368;4.940;2022-08-01T03:59:26;2.78;;;1.33;;
40254;SDS011;25973;52.368;4.940;2022-08-01T04:01:53;2.33;;;1.30;;
40254;SDS011;25973;52.368;4.940;2022-08-01T04:04:20;2.25;;;1.35;;
40254;SDS011;25973;52.368;4.940;2022-08-01T04:06:46;4.43;;;1.90;;
40254;SDS011;25973;52.368;4.940;2022-08-01T04:09:15;4.43;;;1.73;;
40254;SDS011;25973;52.368;4.940;2022-08-01T04:11:41;4.82;;;1.60;;
40254;SDS011;25973;52.368;4.940;2022-08-01T04:14:06;4.50;;;1.70;;
40254;SDS011;25973;52.368;4.940;2022-08-01T04:16:32;6.88;;;2.10;;
40254;SDS011;25973;52.368;4.940;2022-08-01T04:18:59;4.20;;;1.60;;
40254;SDS011;25973;52.368;4.940;2022-08-01T04:21:25;3.83;;;1.83;;
40254;SDS011;25973;52.368;4.940;2022-08-01T04:23:52;5.15;;;2.30;;
40254;SDS011;25973;52.368;4.940;2022-08-01T04:26:22;5.05;;;2.80;;
40254;SDS011;25973;52.368;4.940;2022-08-01T04:28:50;4.75;;;2.05;;
40254;SDS011;25973;52.368;4.940;2022-08-01T04:31:17;8.02;;;1.95;;
40254;SDS011;25973;52.368;4.940;2022-08-01T04:33:46;5.47;;;1.70;;
40254;SDS011;25973;52.368;4.940;2022-08-01T04:36:14;5.50;;;2.00;;
40254;SDS011;25973;52.368;4.940;2022-08-01T04:38:42;4.95;;;2.40;;
40254;SDS011;25973;52.368;4.940;2022-08-01T04:41:11;4.30;;;1.98;;
40254;SDS011;25973;52.368;4.940;2022-08-01T04:43:38;7.65;;;3.10;;
40254;SDS011;25973;52.368;4.940;2022-08-01T04:46:05;7.35;;;2.60;;
40254;SDS011;25973;52.368;4.940;2022-08-01T04:48:32;11.75;;;2.70;;
40254;SDS011;25973;52.368;4.940;2022-08-01T04:50:59;9.80;;;3.63;;
40254;SDS011;25973;52.368;4.940;2022-08-01T04:53:25;4.75;;;2.60;;
40254;SDS011;25973;52.368;4.940;2022-08-01T04:55:51;11.73;;;2.95;;
40254;SDS011;25973;52.368;4.940;2022-08-01T04:58:17;5.72;;;2.58;;
40254;SDS011;25973;52.368;4.940;2022-08-01T05:00:43;13.10;;;3.58;;
40254;SDS011;25973;52.368;4.940;2022-08-01T05:03:08;12.65;;;2.45;;
40254;SDS011;25973;52.368;4.940;2022-08-01T05:05:34;10.02;;;2.40;;
40254;SDS011;25973;52.368;4.940;2022-08-01T05:08:00;7.72;;;2.33;;
40254;SDS011;25973;52.368;4.940;2022-08-01T05:10:26;3.70;;;1.73;;
40254;SDS011;25973;52.368;4.940;2022-08-01T05:12:52;9.05;;;1.90;;
40254;SDS011;25973;52.368;4.940;2022-08-01T05:15:18;11.88;;;2.40;;
40254;SDS011;25973;52.368;4.940;2022-08-01T05:17:43;8.35;;;1.75;;
40254;SDS011;25973;52.368;4.940;2022-08-01T05:20:09;16.70;;;2.70;;
40254;SDS011;25973;52.368;4.940;2022-08-01T05:22:36;9.57;;;2.10;;
40254;SDS011;25973;52.368;4.940;2022-08-01T05:25:02;13.60;;;2.63;;
40254;SDS011;25973;52.368;4.940;2022-08-01T05:27:30;14.48;;;1.88;;
40254;SDS011;25973;52.368;4.940;2022-08-01T05:29:55;8.55;;;1.58;;
40254;SDS011;25973;52.368;4.940;2022-08-01T05:32:21;16.13;;;2.83;;
40254;SDS011;25973;52.368;4.940;2022-08-01T05:34:47;9.15;;;2.58;;
40254;SDS011;25973;52.368;4.940;2022-08-01T05:37:12;6.80;;;1.73;;
40254;SDS011;25973;52.368;4.940;2022-08-01T05:39:38;10.05;;;3.45;;
40254;SDS011;25973;52.368;4.940;2022-08-01T05:42:03;10.40;;;2.33;;
40254;SDS011;25973;52.368;4.940;2022-08-01T05:44:32;9.93;;;2.38;;
40254;SDS011;25973;52.368;4.940;2022-08-01T05:46:57;8.15;;;2.10;;
40254;SDS011;25973;52.368;4.940;2022-08-01T05:49:23;12.20;;;2.40;;
40254;SDS011;25973;52.368;4.940;2022-08-01T05:51:48;14.75;;;3.15;;
40254;SDS011;25973;52.368;4.940;2022-08-01T05:54:14;13.63;;;2.63;;
40254;SDS011;25973;52.368;4.940;2022-08-01T05:56:40;12.63;;;2.97;;
40254;SDS011;25973;52.368;4.940;2022-08-01T05:59:05;12.85;;;2.78;;
40254;SDS011;25973;52.368;4.940;2022-08-01T06:01:31;5.55;;;1.90;;
40254;SDS011;25973;52.368;4.940;2022-08-01T06:03:56;17.98;;;2.60;;
40254;SDS011;25973;52.368;4.940;2022-08-01T06:06:22;10.20;;;2.72;;
40254;SDS011;25973;52.368;4.940;2022-08-01T06:08:47;17.48;;;2.05;;
40254;SDS011;25973;52.368;4.940;2022-08-01T06:11:13;7.53;;;2.65;;
40254;SDS011;25973;52.368;4.940;2022-08-01T06:13:39;9.85;;;2.13;;
40254;SDS011;25973;52.368;4.940;2022-08-01T06:16:04;10.10;;;2.28;;
40254;SDS011;25973;52.368;4.940;2022-08-01T06:18:30;9.88;;;2.50;;
40254;SDS011;25973;52.368;4.940;2022-08-01T06:20:55;11.90;;;1.75;;
40254;SDS011;25973;52.368;4.940;2022-08-01T06:23:21;11.45;;;2.58;;
40254;SDS011;25973;52.368;4.940;2022-08-01T06:25:47;9.88;;;1.50;;
40254;SDS011;25973;52.368;4.940;2022-08-01T06:28:13;11.13;;;1.75;;
40254;SDS011;25973;52.368;4.940;2022-08-01T06:30:38;13.57;;;1.98;;
40254;SDS011;25973;52.368;4.940;2022-08-01T06:33:07;10.05;;;1.98;;
40254;SDS011;25973;52.368;4.940;2022-08-01T06:35:33;8.98;;;1.90;;
40254;SDS011;25973;52.368;4.940;2022-08-01T06:37:59;11.10;;;1.23;;
40254;SDS011;25973;52.368;4.940;2022-08-01T06:40:24;11.00;;;2.08;;
40254;SDS011;25973;52.368;4.940;2022-08-01T06:42:50;8.80;;;2.00;;
40254;SDS011;25973;52.368;4.940;2022-08-01T06:45:16;11.63;;;1.98;;
40254;SDS011;25973;52.368;4.940;2022-08-01T06:47:42;6.97;;;1.55;;
40254;SDS011;25973;52.368;4.940;2022-08-01T06:50:09;11.60;;;1.30;;
40254;SDS011;25973;52.368;4.940;2022-08-01T06:52:35;6.18;;;1.27;;
40254;SDS011;25973;52.368;4.940;2022-08-01T06:55:01;10.05;;;1.35;;
40254;SDS011;25973;52.368;4.940;2022-08-01T06:57:27;11.93;;;1.92;;
40254;SDS011;25973;52.368;4.940;2022-08-01T06:59:53;8.70;;;1.08;;
40254;SDS011;25973;52.368;4.940;2022-08-01T07:02:19;12.75;;;1.73;;
40254;SDS011;25973;52.368;4.940;2022-08-01T07:04:45;8.32;;;1.25;;
40254;SDS011;25973;52.368;4.940;2022-08-01T07:07:10;13.90;;;2.22;;
40254;SDS011;25973;52.368;4.940;2022-08-01T07:09:36;12.52;;;1.58;;
40254;SDS011;25973;52.368;4.940;2022-08-01T07:12:02;8.80;;;1.30;;
40254;SDS011;25973;52.368;4.940;2022-08-01T07:14:28;14.27;;;1.33;;
40254;SDS011;25973;52.368;4.940;2022-08-01T07:16:53;7.35;;;1.40;;
40254;SDS011;25973;52.368;4.940;2022-08-01T07:19:19;10.57;;;1.48;;
40254;SDS011;25973;52.368;4.940;2022-08-01T07:21:45;10.65;;;1.70;;
40254;SDS011;25973;52.368;4.940;2022-08-01T07:24:11;7.45;;;0.90;;
40254;SDS011;25973;52.368;4.940;2022-08-01T07:26:38;14.55;;;2.05;;
40254;SDS011;25973;52.368;4.940;2022-08-01T07:29:08;8.75;;;1.60;;
40254;SDS011;25973;52.368;4.940;2022-08-01T07:31:33;12.73;;;2.63;;
40254;SDS011;25973;52.368;4.940;2022-08-01T07:33:59;12.77;;;1.27;;
40254;SDS011;25973;52.368;4.940;2022-08-01T07:36:24;7.85;;;2.15;;
40254;SDS011;25973;52.368;4.940;2022-08-01T07:38:50;14.63;;;1.50;;
40254;SDS011;25973;52.368;4.940;2022-08-01T07:41:15;14.05;;;1.38;;
40254;SDS011;25973;52.368;4.940;2022-08-01T07:43:41;10.45;;;2.08;;
40254;SDS011;25973;52.368;4.940;2022-08-01T07:46:07;9.55;;;1.92;;
40254;SDS011;25973;52.368;4.940;2022-08-01T07:48:32;5.65;;;1.55;;
40254;SDS011;25973;52.368;4.940;2022-08-01T07:50:58;10.52;;;1.10;;
40254;SDS011;25973;52.368;4.940;2022-08-01T07:53:24;3.47;;;1.00;;
40254;SDS011;25973;52.368;4.940;2022-08-01T07:55:50;7.88;;;1.95;;
40254;SDS011;25973;52.368;4.940;2022-08-01T07:58:16;12.75;;;2.13;;
40254;SDS011;25973;52.368;4.940;2022-08-01T08:00:42;7.40;;;1.48;;
40254;SDS011;25973;52.368;4.940;2022-08-01T08:03:07;11.73;;;1.15;;
40254;SDS011;25973;52.368;4.940;2022-08-01T08:05:33;12.43;;;1.70;;
40254;SDS011;25973;52.368;4.940;2022-08-01T08:08:09;5.60;;;1.10;;
40254;SDS011;25973;52.368;4.940;2022-08-01T08:10:35;10.77;;;2.10;;
40254;SDS011;25973;52.368;4.940;2022-08-01T08:13:01;9.65;;;1.33;;
40254;SDS011;25973;52.368;4.940;2022-08-01T08:15:27;11.07;;;1.10;;
40254;SDS011;25973;52.368;4.940;2022-08-01T08:17:53;8.07;;;1.20;;
40254;SDS011;25973;52.368;4.940;2022-08-01T08:20:19;6.35;;;1.40;;
40254;SDS011;25973;52.368;4.940;2022-08-01T08:22:49;6.35;;;1.08;;
40254;SDS011;25973;52.368;4.940;2022-08-01T08:25:15;6.80;;;1.60;;
40254;SDS011;25973;52.368;4.940;2022-08-01T08:27:41;13.60;;;1.55;;
40254;SDS011;25973;52.368;4.940;2022-08-01T08:30:07;6.65;;;1.23;;
40254;SDS011;25973;52.368;4.940;2022-08-01T08:32:33;9.10;;;1.75;;
40254;SDS011;25973;52.368;4.940;2022-08-01T08:34:59;7.43;;;1.05;;
40254;SDS011;25973;52.368;4.940;2022-08-01T08:37:25;10.18;;;1.42;;
40254;SDS011;25973;52.368;4.940;2022-08-01T08:39:52;8.73;;;1.15;;
40254;SDS011;25973;52.368;4.940;2022-08-01T08:42:17;7.72;;;2.00;;
40254;SDS011;25973;52.368;4.940;2022-08-01T08:44:43;10.32;;;1.52;;
40254;SDS011;25973;52.368;4.940;2022-08-01T08:47:10;5.40;;;0.82;;
40254;SDS011;25973;52.368;4.940;2022-08-01T08:49:37;20.25;;;1.88;;
40254;SDS011;25973;52.368;4.940;2022-08-01T08:52:04;7.53;;;1.13;;
40254;SDS011;25973;52.368;4.940;2022-08-01T08:54:30;7.47;;;1.73;;
40254;SDS011;25973;52.368;4.940;2022-08-01T08:56:57;5.68;;;1.65;;
40254;SDS011;25973;52.368;4.940;2022-08-01T08:59:24;5.38;;;1.67;;
40254;SDS011;25973;52.368;4.940;2022-08-01T09:01:50;6.18;;;1.27;;
40254;SDS011;25973;52.368;4.940;2022-08-01T09:04:16;4.68;;;1.23;;
40254;SDS011;25973;52.368;4.940;2022-08-01T09:06:42;7.38;;;0.98;;
40254;SDS011;25973;52.368;4.940;2022-08-01T09:09:09;7.30;;;1.10;;
40254;SDS011;25973;52.368;4.940;2022-08-01T09:11:35;6.18;;;1.00;;
40254;SDS011;25973;52.368;4.940;2022-08-01T09:14:03;5.72;;;1.27;;
40254;SDS011;25973;52.368;4.940;2022-08-01T09:16:30;10.38;;;1.48;;
40254;SDS011;25973;52.368;4.940;2022-08-01T09:19:11;5.90;;;1.42;;
40254;SDS011;25973;52.368;4.940;2022-08-01T09:21:36;9.77;;;1.13;;
40254;SDS011;25973;52.368;4.940;2022-08-01T09:24:03;8.70;;;1.35;;
40254;SDS011;25973;52.368;4.940;2022-08-01T09:26:34;6.65;;;1.25;;
40254;SDS011;25973;52.368;4.940;2022-08-01T09:29:07;6.55;;;1.02;;
40254;SDS011;25973;52.368;4.940;2022-08-01T09:31:43;4.10;;;1.05;;
40254;SDS011;25973;52.368;4.940;2022-08-01T09:34:10;7.72;;;1.50;;
40254;SDS011;25973;52.368;4.940;2022-08-01T09:39:22;5.82;;;1.13;;
40254;SDS011;25973;52.368;4.940;2022-08-01T09:41:50;6.60;;;1.00;;
40254;SDS011;25973;52.368;4.940;2022-08-01T09:44:16;11.05;;;1.48;;
40254;SDS011;25973;52.368;4.940;2022-08-01T09:46:49;16.55;;;2.15;;
40254;SDS011;25973;52.368;4.940;2022-08-01T09:49:26;5.47;;;1.02;;
40254;SDS011;25973;52.368;4.940;2022-08-01T09:51:56;3.38;;;1.00;;
40254;SDS011;25973;52.368;4.940;2022-08-01T09:54:32;6.07;;;1.52;;
40254;SDS011;25973;52.368;4.940;2022-08-01T09:57:08;5.00;;;0.88;;
40254;SDS011;25973;52.368;4.940;2022-08-01T09:59:36;7.43;;;1.45;;
40254;SDS011;25973;52.368;4.940;2022-08-01T10:02:05;6.93;;;1.70;;
40254;SDS011;25973;52.368;4.940;2022-08-01T10:04:30;4.38;;;1.33;;
40254;SDS011;25973;52.368;4.940;2022-08-01T10:07:03;6.95;;;1.70;;
40254;SDS011;25973;52.368;4.940;2022-08-01T10:09:31;8.18;;;1.35;;
40254;SDS011;25973;52.368;4.940;2022-08-01T10:11:59;6.70;;;1.00;;
40254;SDS011;25973;52.368;4.940;2022-08-01T10:14:26;3.10;;;1.05;;
40254;SDS011;25973;52.368;4.940;2022-08-01T10:16:54;5.95;;;1.00;;
40254;SDS011;25973;52.368;4.940;2022-08-01T10:19:22;9.15;;;1.80;;
40254;SDS011;25973;52.368;4.940;2022-08-01T10:21:49;6.65;;;1.02;;
40254;SDS011;25973;52.368;4.940;2022-08-01T10:24:19;9.95;;;2.35;;
40254;SDS011;25973;52.368;4.940;2022-08-01T10:26:49;6.97;;;1.65;;
40254;SDS011;25973;52.368;4.940;2022-08-01T10:29:17;7.65;;;2.20;;
40254;SDS011;25973;52.368;4.940;2022-08-01T10:31:45;7.78;;;1.42;;
40254;SDS011;25973;52.368;4.940;2022-08-01T10:34:12;7.60;;;1.20;;
40254;SDS011;25973;52.368;4.940;2022-08-01T10:36:42;10.07;;;0.97;;
40254;SDS011;25973;52.368;4.940;2022-08-01T10:39:11;5.20;;;1.08;;
40254;SDS011;25973;52.368;4.940;2022-08-01T10:41:38;6.43;;;0.70;;
40254;SDS011;25973;52.368;4.940;2022-08-01T10:44:06;2.53;;;1.05;;
40254;SDS011;25973;52.368;4.940;2022-08-01T10:46:32;4.45;;;0.88;;
40254;SDS011;25973;52.368;4.940;2022-08-01T10:49:12;4.97;;;0.88;;
40254;SDS011;25973;52.368;4.940;2022-08-01T10:51:40;6.13;;;1.02;;
40254;SDS011;25973;52.368;4.940;2022-08-01T10:54:07;7.57;;;1.75;;
40254;SDS011;25973;52.368;4.940;2022-08-01T10:56:44;4.93;;;1.60;;
40254;SDS011;25973;52.368;4.940;2022-08-01T10:59:30;4.18;;;1.27;;
40254;SDS011;25973;52.368;4.940;2022-08-01T11:02:02;6.13;;;1.58;;
40254;SDS011;25973;52.368;4.940;2022-08-01T11:09:40;1.77;;;0.70;;
40254;SDS011;25973;52.368;4.940;2022-08-01T11:12:13;7.68;;;1.13;;
40254;SDS011;25973;52.368;4.940;2022-08-01T11:17:30;9.32;;;1.45;;
40254;SDS011;25973;52.368;4.940;2022-08-01T11:20:04;11.25;;;1.95;;
40254;SDS011;25973;52.368;4.940;2022-08-01T11:30:44;6.03;;;1.35;;
40254;SDS011;25973;52.368;4.940;2022-08-01T11:33:10;4.63;;;1.60;;
40254;SDS011;25973;52.368;4.940;2022-08-01T11:35:37;8.18;;;1.25;;
40254;SDS011;25973;52.368;4.940;2022-08-01T11:38:22;6.72;;;1.13;;
40254;SDS011;25973;52.368;4.940;2022-08-01T11:52:07;3.75;;;0.90;;
40254;SDS011;25973;52.368;4.940;2022-08-01T11:54:37;6.40;;;1.40;;
40254;SDS011;25973;52.368;4.940;2022-08-01T11:57:14;9.07;;;1.48;;
40254;SDS011;25973;52.368;4.940;2022-08-01T11:59:46;3.95;;;1.17;;
40254;SDS011;25973;52.368;4.940;2022-08-01T12:02:32;5.70;;;1.10;;
40254;SDS011;25973;52.368;4.940;2022-08-01T12:05:00;4.70;;;0.80;;
40254;SDS011;25973;52.368;4.940;2022-08-01T12:07:28;7.93;;;1.95;;
40254;SDS011;25973;52.368;4.940;2022-08-01T12:12:25;6.13;;;1.40;;
40254;SDS011;25973;52.368;4.940;2022-08-01T12:14:52;5.50;;;1.15;;
40254;SDS011;25973;52.368;4.940;2022-08-01T12:17:39;9.23;;;1.63;;
40254;SDS011;25973;52.368;4.940;2022-08-01T12:20:07;7.13;;;1.40;;
40254;SDS011;25973;52.368;4.940;2022-08-01T12:25:06;4.90;;;1.02;;
40254;SDS011;25973;52.368;4.940;2022-08-01T12:27:35;7.57;;;1.17;;
40254;SDS011;25973;52.368;4.940;2022-08-01T12:30:04;6.47;;;0.80;;
40254;SDS011;25973;52.368;4.940;2022-08-01T12:32:32;7.03;;;1.92;;
40254;SDS011;25973;52.368;4.940;2022-08-01T12:35:02;6.13;;;1.20;;
40254;SDS011;25973;52.368;4.940;2022-08-01T12:37:30;8.23;;;2.28;;
40254;SDS011;25973;52.368;4.940;2022-08-01T12:40:23;14.55;;;4.95;;
40254;SDS011;25973;52.368;4.940;2022-08-01T12:42:58;12.95;;;4.53;;
40254;SDS011;25973;52.368;4.940;2022-08-01T12:45:25;8.85;;;1.15;;
40254;SDS011;25973;52.368;4.940;2022-08-01T12:47:53;12.73;;;1.70;;
40254;SDS011;25973;52.368;4.940;2022-08-01T12:50:23;9.38;;;1.70;;
40254;SDS011;25973;52.368;4.940;2022-08-01T12:52:50;8.10;;;2.38;;
40254;SDS011;25973;52.368;4.940;2022-08-01T12:55:20;9.68;;;1.30;;
40254;SDS011;25973;52.368;4.940;2022-08-01T12:57:50;6.10;;;1.13;;
40254;SDS011;25973;52.368;4.940;2022-08-01T13:00:29;6.28;;;1.10;;
40254;SDS011;25973;52.368;4.940;2022-08-01T13:03:02;6.75;;;1.00;;
40254;SDS011;25973;52.368;4.940;2022-08-01T13:08:11;2.80;;;1.08;;
40254;SDS011;25973;52.368;4.940;2022-08-01T13:10:38;4.95;;;0.65;;
40254;SDS011;25973;52.368;4.940;2022-08-01T13:13:03;4.70;;;1.05;;
40254;SDS011;25973;52.368;4.940;2022-08-01T13:15:33;4.38;;;1.33;;
40254;SDS011;25973;52.368;4.940;2022-08-01T13:18:01;7.82;;;1.00;;
40254;SDS011;25973;52.368;4.940;2022-08-01T13:20:45;6.32;;;0.80;;
40254;SDS011;25973;52.368;4.940;2022-08-01T13:23:12;6.22;;;1.30;;
40254;SDS011;25973;52.368;4.940;2022-08-01T13:25:47;6.97;;;2.10;;
40254;SDS011;25973;52.368;4.940;2022-08-01T13:28:14;9.07;;;1.08;;
40254;SDS011;25973;52.368;4.940;2022-08-01T13:30:50;4.30;;;0.95;;
40254;SDS011;25973;52.368;4.940;2022-08-01T13:33:43;8.15;;;1.15;;
40254;SDS011;25973;52.368;4.940;2022-08-01T13:36:12;6.57;;;1.38;;
40254;SDS011;25973;52.368;4.940;2022-08-01T13:38:39;12.43;;;1.67;;
40254;SDS011;25973;52.368;4.940;2022-08-01T13:41:24;4.75;;;1.17;;
40254;SDS011;25973;52.368;4.940;2022-08-01T13:43:50;8.13;;;1.17;;
40254;SDS011;25973;52.368;4.940;2022-08-01T13:46:15;10.13;;;1.38;;
40254;SDS011;25973;52.368;4.940;2022-08-01T13:48:41;8.30;;;1.17;;
40254;SDS011;25973;52.368;4.940;2022-08-01T13:51:07;6.70;;;1.35;;
40254;SDS011;25973;52.368;4.940;2022-08-01T13:53:32;7.55;;;1.20;;
40254;SDS011;25973;52.368;4.940;2022-08-01T13:55:58;11.30;;;1.40;;
40254;SDS011;25973;52.368;4.940;2022-08-01T13:58:24;19.45;;;1.20;;
40254;SDS011;25973;52.368;4.940;2022-08-01T14:00:49;2.95;;;0.60;;
40254;SDS011;25973;52.368;4.940;2022-08-01T14:03:15;4.68;;;0.90;;
40254;SDS011;25973;52.368;4.940;2022-08-01T14:05:42;4.13;;;0.70;;
40254;SDS011;25973;52.368;4.940;2022-08-01T14:08:08;6.65;;;0.85;;
40254;SDS011;25973;52.368;4.940;2022-08-01T14:10:34;4.22;;;1.23;;
40254;SDS011;25973;52.368;4.940;2022-08-01T14:13:00;5.50;;;0.65;;
40254;SDS011;25973;52.368;4.940;2022-08-01T14:15:25;6.28;;;0.68;;
40254;SDS011;25973;52.368;4.940;2022-08-01T14:17:51;12.73;;;1.58;;
40254;SDS011;25973;52.368;4.940;2022-08-01T14:20:17;8.55;;;1.30;;
40254;SDS011;25973;52.368;4.940;2022-08-01T14:22:45;3.35;;;1.33;;
40254;SDS011;25973;52.368;4.940;2022-08-01T14:25:11;10.38;;;1.75;;
40254;SDS011;25973;52.368;4.940;2022-08-01T14:27:37;5.93;;;1.08;;
40254;SDS011;25973;52.368;4.940;2022-08-01T14:30:05;10.05;;;1.50;;
40254;SDS011;25973;52.368;4.940;2022-08-01T14:32:31;2.92;;;0.80;;
40254;SDS011;25973;52.368;4.940;2022-08-01T14:34:58;4.15;;;0.82;;
40254;SDS011;25973;52.368;4.940;2022-08-01T14:37:24;11.57;;;1.63;;
40254;SDS011;25973;52.368;4.940;2022-08-01T14:39:49;5.38;;;1.52;;
40254;SDS011;25973;52.368;4.940;2022-08-01T14:42:15;3.78;;;1.17;;
40254;SDS011;25973;52.368;4.940;2022-08-01T14:44:40;6.50;;;0.90;;
40254;SDS011;25973;52.368;4.940;2022-08-01T14:47:06;3.67;;;0.80;;
40254;SDS011;25973;52.368;4.940;2022-08-01T14:49:32;9.57;;;1.23;;
40254;SDS011;25973;52.368;4.940;2022-08-01T14:51:57;5.00;;;1.35;;
40254;SDS011;25973;52.368;4.940;2022-08-01T14:54:23;4.28;;;1.30;;
40254;SDS011;25973;52.368;4.940;2022-08-01T14:56:48;7.22;;;1.15;;
40254;SDS011;25973;52.368;4.940;2022-08-01T14:59:14;3.58;;;1.00;;
40254;SDS011;25973;52.368;4.940;2022-08-01T15:01:39;6.65;;;1.20;;
40254;SDS011;25973;52.368;4.940;2022-08-01T15:04:05;8.77;;;2.33;;
40254;SDS011;25973;52.368;4.940;2022-08-01T15:06:31;8.98;;;1.05;;
40254;SDS011;25973;52.368;4.940;2022-08-01T15:08:56;5.00;;;0.90;;
40254;SDS011;25973;52.368;4.940;2022-08-01T15:11:22;6.97;;;2.40;;
40254;SDS011;25973;52.368;4.940;2022-08-01T15:13:48;5.95;;;2.00;;
40254;SDS011;25973;52.368;4.940;2022-08-01T15:16:33;7.35;;;1.80;;
40254;SDS011;25973;52.368;4.940;2022-08-01T15:18:59;4.30;;;0.80;;
40254;SDS011;25973;52.368;4.940;2022-08-01T15:21:24;6.80;;;1.25;;
40254;SDS011;25973;52.368;4.940;2022-08-01T15:23:50;5.05;;;1.08;;
40254;SDS011;25973;52.368;4.940;2022-08-01T15:26:15;3.75;;;1.20;;
40254;SDS011;25973;52.368;4.940;2022-08-01T15:28:41;6.95;;;0.70;;
40254;SDS011;25973;52.368;4.940;2022-08-01T15:31:07;5.13;;;0.90;;
40254;SDS011;25973;52.368;4.940;2022-08-01T15:33:32;5.70;;;1.25;;
40254;SDS011;25973;52.368;4.940;2022-08-01T15:35:58;7.15;;;0.95;;
40254;SDS011;25973;52.368;4.940;2022-08-01T15:38:23;7.63;;;1.00;;